Aeroporto :
LOGIN :

Iscrizione | Disclaimer

   EN    FR    IT 

 










Sommario :    VFR   VFR Marginale   IFR   IFR Intensivo   IFR Molto Intensivo
Visibilità : 
Base nubi : 
>= 8 km
>= 3000ft
5 / 8 km
1000 / 3000 ft
1500m / 5 km
500 / 1000 ft
800 / 1500m
200 / 500 ft
< 800m
< 200 ft
Simboli :   Temporali  Nebbia  Neve Forte  Precipitazioni Forti  Vento > 20 kt
SIGMETs :   Varie  Temporali  Ghiacco  Turbolenza  Onda orograficha  Ceneri Vulcaniche






- Altitudine del aeroporto : 140 ft


ESTL - Ljungbyhed

ULTIMO METAR :
  • 180720Z 25012KT 9999 FEW017 05/03 Q1005 RERA

METARs OBSOLETI :
  • 180650Z AUTO 25019G31KT 7000 -RA FEW011/// SCT030/// 05/03 Q1005 RESHRA RESHUP REDZ
  • 180620Z AUTO 24010KT 9999 FEW038/// BKN042/// 06/03 Q1004
  • 180550Z AUTO 24012KT 9999 FEW025/// OVC039/// 06/04 Q1004 REUP RESHUP
  • 180520Z AUTO 24012KT 9999 FEW029/// OVC041/// 07/04 Q1004
  • 180450Z AUTO 23012KT 9999 FEW022/// SCT033/// OVC045/// 06/05 Q1004

TAF TAF ESTL
Valido dal 18 a 07 ore il 18 a 15 ore UTC


180606Z 1807/1815 24015KT 9999 BKN020
TEMPO 1807/1811 -SHRA BKN020CB
TEMPO 1811/1813 25020G30KT 4000 SHRAGS BKN010 BKN020CB
TEMPO 1813/1815 26018G30KT SHRA SCT020CB



MetMap, La meteo Aeronautica in un colpo d'occhio ! - Copyright ORBIFLY Dicembre 2007 - Disclaimer

ORBIFLY MET'MAP TEAM :

Programmazione e sviluppo : Alexandra Zaïnal
Concezione : Baudouin d'Aumeries
Aiuto per la programmazione : Marc-Olivier Méhu
Supporto tecnico e logistico : Manuel Goepfert
Aiuto per la traduzione : Arnaldo La Scala

Contatto : metmap@orbifly.com




FONTI E CREDITI :

   NOAA